createdAt,value
2018-04-17T00:01:10.629Z,60.96
2018-04-17T00:03:38.201Z,57.48
2018-04-17T00:06:05.842Z,56.26
2018-04-17T00:08:33.482Z,52.23
2018-04-17T00:11:01.079Z,60.07
2018-04-17T00:13:28.692Z,58.21
2018-04-17T00:15:56.268Z,57.32
2018-04-17T00:18:23.834Z,57.55
2018-04-17T00:20:51.441Z,58.44
2018-04-17T00:23:19.028Z,57.19
2018-04-17T00:25:46.624Z,58.64
2018-04-17T00:28:14.258Z,59.24
2018-04-17T00:30:41.851Z,59.05
2018-04-17T00:33:09.449Z,58.75
2018-04-17T00:35:37.084Z,60.02
2018-04-17T00:38:04.693Z,57.97
2018-04-17T00:40:32.283Z,58.55
2018-04-17T00:42:59.902Z,59.72
2018-04-17T00:45:27.498Z,62.77
2018-04-17T00:47:55.085Z,61.59
2018-04-17T00:50:22.709Z,59.38
2018-04-17T00:52:50.316Z,57.37
2018-04-17T00:55:17.909Z,60.90
2018-04-17T00:57:45.551Z,57.73
2018-04-17T01:00:13.267Z,57.11
2018-04-17T01:02:40.874Z,57.73
2018-04-17T01:05:08.491Z,58.38
2018-04-17T01:07:36.073Z,57.56
2018-04-17T01:10:03.704Z,58.06
2018-04-17T01:12:31.331Z,58.03
2018-04-17T01:14:58.918Z,58.96
2018-04-17T01:17:26.505Z,58.61
2018-04-17T01:19:54.137Z,59.05
2018-04-17T01:22:21.717Z,58.62
2018-04-17T01:24:49.301Z,59.71
2018-04-17T01:27:16.933Z,60.24
2018-04-17T01:29:44.529Z,60.52
2018-04-17T01:32:12.112Z,58.70
2018-04-17T01:34:39.733Z,59.28
2018-04-17T01:37:07.336Z,60.11
2018-04-17T01:39:34.915Z,66.07
2018-04-17T01:42:02.530Z,67.40
2018-04-17T01:44:30.136Z,67.29
2018-04-17T01:46:57.725Z,67.27
2018-04-17T01:49:25.397Z,66.34
2018-04-17T01:51:52.989Z,65.91
2018-04-17T01:54:20.577Z,65.71
2018-04-17T01:56:48.216Z,68.49
2018-04-17T01:59:15.797Z,69.15
2018-04-17T02:01:43.380Z,67.89
2018-04-17T02:04:11.009Z,66.55
2018-04-17T02:06:38.587Z,65.92
2018-04-17T02:09:06.218Z,64.92
2018-04-17T02:11:33.832Z,64.59
2018-04-17T02:14:01.430Z,64.69
2018-04-17T02:16:29.027Z,65.53
2018-04-17T02:18:56.649Z,65.60
2018-04-17T02:21:24.241Z,65.13
2018-04-17T02:23:51.832Z,68.01
2018-04-17T02:26:19.464Z,66.13
2018-04-17T02:28:47.052Z,66.52
2018-04-17T02:31:14.694Z,67.00
2018-04-17T02:33:42.313Z,73.06
2018-04-17T02:36:09.917Z,71.79
2018-04-17T02:38:37.499Z,71.25
2018-04-17T02:41:05.121Z,71.43
2018-04-17T02:43:32.709Z,71.51
2018-04-17T02:46:00.300Z,71.33
2018-04-17T02:48:27.939Z,73.38
2018-04-17T02:50:55.566Z,74.69
2018-04-17T02:53:23.165Z,73.13
2018-04-17T02:55:50.802Z,72.72
2018-04-17T02:58:18.400Z,72.97
2018-04-17T03:00:45.992Z,72.85
2018-04-17T03:03:13.611Z,72.51
2018-04-17T03:05:41.217Z,71.31
2018-04-17T03:08:08.805Z,70.88
2018-04-17T03:10:36.429Z,70.42
2018-04-17T03:13:04.022Z,70.51
2018-04-17T03:15:31.608Z,70.76
2018-04-17T03:17:59.237Z,71.47
2018-04-17T03:20:26.837Z,72.58
2018-04-17T03:22:54.418Z,72.52
2018-04-17T03:25:22.112Z,73.50
2018-04-17T03:27:49.713Z,72.88
2018-04-17T03:30:17.297Z,73.14
2018-04-17T03:32:44.912Z,75.13
2018-04-17T03:35:12.535Z,74.75
2018-04-17T03:37:40.134Z,73.19
2018-04-17T03:40:07.763Z,70.93
2018-04-17T03:42:35.345Z,69.83
2018-04-17T03:45:02.940Z,69.47
2018-04-17T03:47:30.614Z,69.02
2018-04-17T03:49:58.200Z,69.60
2018-04-17T03:52:25.787Z,69.04
2018-04-17T03:54:53.408Z,68.68
2018-04-17T03:57:20.991Z,70.41
2018-04-17T03:59:48.572Z,73.20
2018-04-17T04:02:16.198Z,68.07
2018-04-17T04:04:43.785Z,68.63
2018-04-17T04:07:11.369Z,69.84
2018-04-17T04:09:39.001Z,66.64
2018-04-17T04:12:06.583Z,67.94
2018-04-17T04:14:34.160Z,67.13
2018-04-17T04:17:13.641Z,68.95
2018-04-17T04:19:52.867Z,67.61
2018-04-17T04:22:32.169Z,67.14
2018-04-17T04:25:16.419Z,66.55
2018-04-17T04:27:44.091Z,66.46
2018-04-17T04:30:11.676Z,66.10
2018-04-17T04:32:39.304Z,68.17
2018-04-17T04:35:06.944Z,71.77
2018-04-17T04:37:34.526Z,73.24
2018-04-17T04:40:02.120Z,73.42
2018-04-17T04:42:29.740Z,72.82
2018-04-17T04:44:57.331Z,71.94
2018-04-17T04:47:24.916Z,70.66
2018-04-17T04:49:52.549Z,70.69
2018-04-17T04:52:20.138Z,73.57
2018-04-17T04:54:47.731Z,73.61
2018-04-17T04:57:15.360Z,72.42
2018-04-17T04:59:42.954Z,72.35
2018-04-17T05:02:10.549Z,72.72
2018-04-17T05:04:38.168Z,73.10
2018-04-17T05:07:05.758Z,74.29
2018-04-17T05:09:33.545Z,75.29
2018-04-17T05:12:01.216Z,73.67
2018-04-17T05:14:28.841Z,73.79
2018-04-17T05:16:56.546Z,75.52
2018-04-17T05:19:24.172Z,73.91
2018-04-17T05:21:51.869Z,74.43
2018-04-17T05:24:19.505Z,74.75
2018-04-17T05:26:47.185Z,75.63
2018-04-17T05:29:14.856Z,75.99
2018-04-17T05:31:42.520Z,76.97
2018-04-17T05:34:10.151Z,76.50
2018-04-17T05:36:37.828Z,78.52
2018-04-17T05:39:05.484Z,79.06
2018-04-17T05:41:33.168Z,79.93
2018-04-17T05:44:00.829Z,81.29
2018-04-17T05:46:28.482Z,80.94
2018-04-17T05:48:56.210Z,80.76
2018-04-17T05:51:23.998Z,82.42
2018-04-17T05:53:51.647Z,80.79
2018-04-17T05:56:19.375Z,78.24
2018-04-17T05:58:47.211Z,78.82
2018-04-17T06:01:15.142Z,79.78
2018-04-17T06:03:42.776Z,79.59
2018-04-17T06:06:10.393Z,81.92
2018-04-17T06:08:38.055Z,84.59
2018-04-17T06:11:05.907Z,82.09
2018-04-17T06:13:33.581Z,81.49
2018-04-17T06:16:01.259Z,81.81
2018-04-17T06:18:29.087Z,81.19
2018-04-17T06:20:56.791Z,81.07
2018-04-17T06:23:24.451Z,82.84
2018-04-17T06:25:52.135Z,81.07
2018-04-17T06:28:19.746Z,77.88
2018-04-17T06:30:47.438Z,77.04
2018-04-17T06:33:15.095Z,80.89
2018-04-17T06:35:42.755Z,79.75
2018-04-17T06:38:10.595Z,81.15
2018-04-17T06:40:38.281Z,82.79
2018-04-17T06:43:06.008Z,83.43
2018-04-17T06:45:34.025Z,80.17
2018-04-17T06:48:01.686Z,82.01
2018-04-17T06:50:29.342Z,83.58
2018-04-17T06:52:57.000Z,81.02
2018-04-17T06:55:24.629Z,80.38
2018-04-17T06:57:52.253Z,81.84
2018-04-17T07:00:19.990Z,78.32
2018-04-17T07:02:47.659Z,77.45
2018-04-17T07:05:15.339Z,76.80
2018-04-17T07:07:43.051Z,78.73
2018-04-17T07:10:11.038Z,80.20
2018-04-17T07:12:38.632Z,79.53
2018-04-17T07:15:06.230Z,78.74
2018-04-17T07:17:34.067Z,76.47
2018-04-17T07:20:01.696Z,74.74
2018-04-17T07:22:29.422Z,75.14
2018-04-17T07:24:57.234Z,78.88
2018-04-17T07:27:24.928Z,78.00
2018-04-17T07:29:52.548Z,77.11
2018-04-17T07:32:20.177Z,76.62
2018-04-17T07:34:48.090Z,77.66
2018-04-17T07:37:15.808Z,76.16
2018-04-17T07:39:43.824Z,76.09
2018-04-17T07:42:11.487Z,76.28
2018-04-17T07:44:39.147Z,74.08
2018-04-17T07:47:31.643Z,72.49
2018-04-17T07:49:59.240Z,70.16
2018-04-17T07:52:27.048Z,69.83
2018-04-17T07:54:54.784Z,68.36
2018-04-17T07:57:22.438Z,67.35
2018-04-17T07:59:50.114Z,66.13
2018-04-17T08:02:17.944Z,64.25
2018-04-17T08:04:45.541Z,63.10
2018-04-17T08:07:13.304Z,62.62
2018-04-17T08:09:40.930Z,63.54
2018-04-17T08:12:08.521Z,64.35
2018-04-17T08:14:36.285Z,68.11
2018-04-17T08:17:03.933Z,64.71
2018-04-17T08:19:31.517Z,62.51
2018-04-17T08:21:59.099Z,62.07
2018-04-17T08:24:26.932Z,60.26
2018-04-17T08:26:54.590Z,57.44
2018-04-17T08:29:22.255Z,56.36
2018-04-17T08:31:49.894Z,50.13
2018-04-17T08:34:17.461Z,49.07
2018-04-17T08:36:45.240Z,46.34
2018-04-17T08:39:12.875Z,48.45
2018-04-17T08:41:40.567Z,47.04
2018-04-17T08:44:08.209Z,46.27
2018-04-17T08:46:35.885Z,46.65
2018-04-17T08:49:03.564Z,43.58
2018-04-17T08:51:31.215Z,43.51
2018-04-17T08:53:58.877Z,42.69
2018-04-17T08:56:26.720Z,44.76
2018-04-17T08:58:54.588Z,44.19
2018-04-17T09:01:22.220Z,45.55
2018-04-17T09:03:49.932Z,47.18
2018-04-17T09:06:17.604Z,48.30
2018-04-17T09:08:45.252Z,49.88
2018-04-17T09:11:12.926Z,51.80
2018-04-17T09:13:40.639Z,54.51
2018-04-17T09:16:08.447Z,52.56
2018-04-17T09:18:36.119Z,53.00
2018-04-17T09:21:03.840Z,52.44
2018-04-17T09:23:31.556Z,51.75
2018-04-17T09:25:59.307Z,51.66
2018-04-17T09:28:26.976Z,50.36
2018-04-17T09:30:54.635Z,50.05
2018-04-17T09:33:22.226Z,50.18
2018-04-17T09:35:49.830Z,49.01
2018-04-17T09:38:17.612Z,49.39
2018-04-17T09:40:45.193Z,49.93
2018-04-17T09:43:13.155Z,50.42
2018-04-17T09:45:40.803Z,49.13
2018-04-17T09:48:08.473Z,47.68
2018-04-17T09:50:36.149Z,47.79
2018-04-17T09:53:03.786Z,49.38
2018-04-17T09:55:31.448Z,48.15
2018-04-17T09:57:59.132Z,47.46
2018-04-17T10:00:26.801Z,47.27
2018-04-17T10:02:54.387Z,46.52
2018-04-17T10:05:22.111Z,46.44
2018-04-17T10:07:49.748Z,45.85
2018-04-17T10:10:17.476Z,46.71
2018-04-17T10:12:45.098Z,48.25
2018-04-17T10:15:12.966Z,47.68
2018-04-17T10:17:40.805Z,45.94
2018-04-17T10:20:08.393Z,45.38
2018-04-17T10:22:36.040Z,46.16
2018-04-17T10:25:03.701Z,46.64
2018-04-17T10:27:31.315Z,46.14
2018-04-17T10:29:58.956Z,45.77
2018-04-17T10:32:26.556Z,46.99
2018-04-17T10:34:54.147Z,46.77
2018-04-17T10:37:21.785Z,46.67
2018-04-17T10:39:49.412Z,46.44
2018-04-17T10:42:17.009Z,48.99
2018-04-17T10:44:44.707Z,47.03
2018-04-17T10:47:12.300Z,48.32
2018-04-17T10:49:39.932Z,45.77
2018-04-17T10:52:07.605Z,45.74
2018-04-17T10:54:35.190Z,42.97
2018-04-17T10:57:02.796Z,44.37
2018-04-17T10:59:30.414Z,41.47
2018-04-17T11:01:58.009Z,42.80
2018-04-17T11:04:25.632Z,42.79
2018-04-17T11:06:53.259Z,40.96
2018-04-17T11:09:20.853Z,42.82
2018-04-17T11:11:48.453Z,38.91
2018-04-17T11:14:16.122Z,39.02
2018-04-17T11:16:43.727Z,39.04
2018-04-17T11:19:11.308Z,37.75
2018-04-17T11:21:39.034Z,39.20
2018-04-17T11:24:06.628Z,39.62
2018-04-17T11:26:34.216Z,39.02
2018-04-17T11:29:01.860Z,38.60
2018-04-17T11:31:29.467Z,38.45
2018-04-17T11:33:57.061Z,37.73
2018-04-17T11:36:24.688Z,36.64
2018-04-17T11:38:52.305Z,35.78
2018-04-17T11:41:19.902Z,35.27
2018-04-17T11:43:47.530Z,35.58
2018-04-17T11:46:15.126Z,35.64
2018-04-17T11:48:42.748Z,36.46
2018-04-17T11:51:10.422Z,35.12
2018-04-17T11:53:38.053Z,36.42
2018-04-17T11:56:05.645Z,37.71
2018-04-17T11:58:33.285Z,38.50
2018-04-17T12:01:00.876Z,37.77
2018-04-17T12:03:28.464Z,38.63
2018-04-17T12:05:56.085Z,38.37
2018-04-17T12:08:23.675Z,39.94
2018-04-17T12:10:51.296Z,37.73
2018-04-17T12:13:18.961Z,38.68
2018-04-17T12:15:46.553Z,39.64
2018-04-17T12:18:14.129Z,41.78
2018-04-17T12:20:41.734Z,42.37
2018-04-17T12:23:09.320Z,43.51
2018-04-17T12:25:36.905Z,45.04
2018-04-17T12:28:04.533Z,45.94
2018-04-17T12:30:32.109Z,44.35
2018-04-17T12:32:59.696Z,46.77
2018-04-17T12:35:27.326Z,45.28
2018-04-17T12:37:54.914Z,44.74
2018-04-17T12:40:22.508Z,46.25
2018-04-17T12:42:50.152Z,46.15
2018-04-17T12:45:17.749Z,45.53
2018-04-17T12:47:45.354Z,45.31
2018-04-17T12:50:12.990Z,44.85
2018-04-17T12:52:40.777Z,45.70
2018-04-17T12:55:08.557Z,44.43
2018-04-17T12:57:36.224Z,45.04
2018-04-17T13:00:03.885Z,45.36
2018-04-17T13:02:31.481Z,45.85
2018-04-17T13:04:59.120Z,45.79
2018-04-17T13:07:26.724Z,45.45
2018-04-17T13:09:54.319Z,44.99
2018-04-17T13:12:21.941Z,43.71
2018-04-17T13:14:49.853Z,45.20
2018-04-17T13:17:17.505Z,47.06
2018-04-17T13:19:45.127Z,43.03
2018-04-17T13:22:19.533Z,42.10
2018-04-17T13:24:47.258Z,43.11
2018-04-17T13:27:14.905Z,39.92
2018-04-17T13:29:42.574Z,39.81
2018-04-17T13:32:10.363Z,39.70
2018-04-17T13:34:37.952Z,39.87
2018-04-17T13:37:05.553Z,41.29
2018-04-17T13:39:33.181Z,41.12
2018-04-17T13:42:01.064Z,41.00
2018-04-17T13:44:29.305Z,44.04
2018-04-17T13:46:56.986Z,43.05
2018-04-17T13:49:24.603Z,41.45
2018-04-17T13:51:52.797Z,42.52
2018-04-17T13:54:20.446Z,41.95
2018-04-17T13:56:48.025Z,42.77
2018-04-17T13:59:15.635Z,43.37
2018-04-17T14:01:43.271Z,41.71
2018-04-17T14:04:10.884Z,42.44
2018-04-17T14:06:38.530Z,45.13
2018-04-17T14:09:07.015Z,43.10
2018-04-17T14:11:34.617Z,44.12
2018-04-17T14:14:02.196Z,43.75
2018-04-17T14:16:29.821Z,43.87
2018-04-17T14:18:57.399Z,44.73
2018-04-17T14:21:25.050Z,43.54
2018-04-17T14:23:52.710Z,46.30
2018-04-17T14:26:20.318Z,45.70
2018-04-17T14:28:47.932Z,45.13
2018-04-17T14:31:15.582Z,46.09
2018-04-17T14:33:43.182Z,46.03
2018-04-17T14:36:10.783Z,46.27
2018-04-17T14:38:38.463Z,46.56
2018-04-17T14:41:06.065Z,47.32
2018-04-17T14:43:33.736Z,47.38
2018-04-17T14:46:01.452Z,47.85
2018-04-17T14:48:29.068Z,48.64
2018-04-17T14:50:56.742Z,46.31
2018-04-17T14:53:24.414Z,47.05
2018-04-17T14:55:51.998Z,46.13
2018-04-17T14:58:19.608Z,46.96
2018-04-17T15:00:47.239Z,48.46
2018-04-17T15:03:14.848Z,47.28
2018-04-17T15:05:42.458Z,48.35
2018-04-17T15:08:10.129Z,47.95
2018-04-17T15:10:37.736Z,47.97
2018-04-17T15:13:05.360Z,49.53
2018-04-17T15:15:33.081Z,48.62
2018-04-17T15:18:01.814Z,48.51
2018-04-17T15:20:29.498Z,48.58
2018-04-17T15:22:57.141Z,48.43
2018-04-17T15:25:24.741Z,48.43
2018-04-17T15:27:52.331Z,48.23
2018-04-17T15:30:19.998Z,48.73
2018-04-17T15:32:47.601Z,49.22
2018-04-17T15:35:15.237Z,49.03
2018-04-17T15:37:42.885Z,50.67
2018-04-17T15:40:10.552Z,50.81
2018-04-17T15:42:38.157Z,52.85
2018-04-17T15:45:05.823Z,53.01
2018-04-17T15:47:33.455Z,54.33
2018-04-17T15:50:01.065Z,55.31
2018-04-17T15:52:28.966Z,56.12
2018-04-17T15:54:56.578Z,56.78
2018-04-17T15:57:24.178Z,57.24
2018-04-17T15:59:51.845Z,57.63
2018-04-17T16:02:19.424Z,58.39
2018-04-17T16:04:48.737Z,59.58
2018-04-17T16:07:18.802Z,60.14
2018-04-17T16:09:48.792Z,61.06
2018-04-17T16:12:16.692Z,62.46
2018-04-17T16:14:44.382Z,62.15
2018-04-17T16:17:12.221Z,62.50
2018-04-17T16:19:39.844Z,62.99
2018-04-17T16:22:07.540Z,63.75
2018-04-17T16:24:35.409Z,63.96
2018-04-17T16:27:03.096Z,64.90
2018-04-17T16:29:31.146Z,66.25
2018-04-17T16:31:58.737Z,67.18
2018-04-17T16:34:26.677Z,69.17
2018-04-17T16:36:54.517Z,68.59
2018-04-17T16:39:22.206Z,69.63
2018-04-17T16:41:49.869Z,68.83
2018-04-17T16:44:17.687Z,68.79
2018-04-17T16:46:45.317Z,69.60
2018-04-17T16:49:13.045Z,69.99
2018-04-17T16:51:40.730Z,69.50
2018-04-17T16:54:08.462Z,68.54
2018-04-17T16:56:36.457Z,69.54
2018-04-17T16:59:04.316Z,69.43
2018-04-17T17:01:32.119Z,69.38
2018-04-17T17:03:59.869Z,70.53
2018-04-17T17:06:27.514Z,71.24
2018-04-17T17:08:55.237Z,71.67
2018-04-17T17:11:22.818Z,70.53
2018-04-17T17:13:50.460Z,71.58
2018-04-17T17:16:18.147Z,70.80
2018-04-17T17:18:45.829Z,70.52
2018-04-17T17:21:13.458Z,70.23
2018-04-17T17:23:41.146Z,69.98
2018-04-17T17:26:08.801Z,71.02
2018-04-17T17:28:36.417Z,70.99
2018-04-17T17:31:04.338Z,71.58
2018-04-17T17:33:32.112Z,72.12
2018-04-17T17:35:59.763Z,72.47
2018-04-17T17:38:27.517Z,72.96
2018-04-17T17:40:55.625Z,73.41
2018-04-17T17:43:23.306Z,74.16
2018-04-17T17:45:51.541Z,74.23
2018-04-17T17:48:19.284Z,74.30
2018-04-17T17:50:47.044Z,74.55
2018-04-17T17:53:14.763Z,75.07
2018-04-17T17:55:42.395Z,74.95
2018-04-17T17:58:10.033Z,75.32
2018-04-17T18:00:37.706Z,75.41
2018-04-17T18:03:05.389Z,75.57
2018-04-17T18:05:33.249Z,75.39
2018-04-17T18:08:00.858Z,76.05
2018-04-17T18:10:28.483Z,75.36
2018-04-17T18:12:56.102Z,76.52
2018-04-17T18:15:23.954Z,76.51
2018-04-17T18:17:51.614Z,76.51
2018-04-17T18:20:19.245Z,76.44
2018-04-17T18:22:46.983Z,76.57
2018-04-17T18:25:14.644Z,77.48
2018-04-17T18:27:42.266Z,76.81
2018-04-17T18:30:10.055Z,76.55
2018-04-17T18:32:37.646Z,74.56
2018-04-17T18:35:05.265Z,74.38
2018-04-17T18:37:32.944Z,74.54
2018-04-17T18:40:00.532Z,71.36
2018-04-17T18:42:28.171Z,70.53
2018-04-17T18:44:56.124Z,69.35
2018-04-17T18:47:23.970Z,70.79
2018-04-17T18:49:51.602Z,71.85
2018-04-17T18:52:19.198Z,69.42
2018-04-17T18:54:46.807Z,69.77
2018-04-17T18:57:14.441Z,70.91
2018-04-17T18:59:42.016Z,69.94
2018-04-17T19:02:09.611Z,67.82
2018-04-17T19:04:37.437Z,68.52
2018-04-17T19:07:05.070Z,69.33
2018-04-17T19:09:32.666Z,68.91
2018-04-17T19:12:00.340Z,69.53
2018-04-17T19:14:27.937Z,70.56
2018-04-17T19:16:55.547Z,70.47
2018-04-17T19:19:23.196Z,70.83
2018-04-17T19:21:50.832Z,71.18
2018-04-17T19:24:18.438Z,70.56
2018-04-17T19:26:46.070Z,70.43
2018-04-17T19:29:13.672Z,70.17
2018-04-17T19:31:41.272Z,70.79
2018-04-17T19:34:08.956Z,70.11
2018-04-17T19:36:36.541Z,71.28
2018-04-17T19:39:04.289Z,72.16
2018-04-17T19:41:31.926Z,71.93
2018-04-17T19:43:59.549Z,71.78
2018-04-17T19:46:27.247Z,72.14
2018-04-17T19:48:54.917Z,72.07
2018-04-17T19:51:22.502Z,74.21
2018-04-17T19:53:50.097Z,74.82
2018-04-17T19:56:17.741Z,74.97
2018-04-17T19:58:45.330Z,75.24
2018-04-17T20:01:12.937Z,74.12
2018-04-17T20:03:40.574Z,74.95
2018-04-17T20:06:09.094Z,75.49
2018-04-17T20:08:36.713Z,76.21
2018-04-17T20:11:04.426Z,76.84
2018-04-17T20:13:32.024Z,77.18
2018-04-17T20:15:59.628Z,77.41
2018-04-17T20:18:27.257Z,77.65
2018-04-17T20:20:54.883Z,78.92
2018-04-17T20:23:22.528Z,79.07
2018-04-17T20:25:50.162Z,78.18
2018-04-17T20:28:17.746Z,78.02
2018-04-17T20:30:45.398Z,78.63
2018-04-17T20:33:13.085Z,79.03
2018-04-17T20:35:40.680Z,79.62
2018-04-17T20:38:08.306Z,80.20
2018-04-17T20:40:35.917Z,80.19
2018-04-17T20:43:03.542Z,80.53
2018-04-17T20:45:31.145Z,79.75
2018-04-17T20:47:58.760Z,79.56
2018-04-17T20:50:26.381Z,79.78
2018-04-17T20:52:54.012Z,79.17
2018-04-17T20:55:21.674Z,80.62
2018-04-17T20:57:49.268Z,81.69
2018-04-17T21:00:16.912Z,81.32
2018-04-17T21:02:44.537Z,80.98
2018-04-17T21:05:12.141Z,80.33
2018-04-17T21:07:39.783Z,81.30
2018-04-17T21:10:07.434Z,82.46
2018-04-17T21:12:35.088Z,82.67
2018-04-17T21:15:02.678Z,82.42
2018-04-17T21:17:30.347Z,82.47
2018-04-17T21:19:57.929Z,82.12
2018-04-17T21:22:25.533Z,83.41
2018-04-17T21:24:53.192Z,83.16
2018-04-17T21:27:20.777Z,82.35
2018-04-17T21:29:48.391Z,83.82
2018-04-17T21:32:16.045Z,83.91
2018-04-17T21:34:43.655Z,83.05
2018-04-17T21:37:11.256Z,83.73
2018-04-17T21:39:38.941Z,83.52
2018-04-17T21:42:06.543Z,83.76
2018-04-17T21:44:34.145Z,84.10
2018-04-17T21:47:01.771Z,84.04
2018-04-17T21:49:29.428Z,84.15
2018-04-17T21:51:57.054Z,83.17
2018-04-17T21:54:24.693Z,83.45
2018-04-17T21:56:52.301Z,83.63
2018-04-17T21:59:19.945Z,83.99
2018-04-17T22:01:47.599Z,84.09
2018-04-17T22:04:15.216Z,84.29
2018-04-17T22:06:42.815Z,84.85
2018-04-17T22:09:11.376Z,85.03
2018-04-17T22:11:39.008Z,85.04
2018-04-17T22:14:06.640Z,85.09
2018-04-17T22:16:34.272Z,84.20
2018-04-17T22:19:01.861Z,83.85
2018-04-17T22:21:29.505Z,83.99
2018-04-17T22:23:57.241Z,84.21
2018-04-17T22:26:24.828Z,84.14
2018-04-17T22:28:52.420Z,84.10
2018-04-17T22:31:20.052Z,83.68
2018-04-17T22:33:47.674Z,83.99
2018-04-17T22:36:15.293Z,84.87
2018-04-17T22:38:42.947Z,85.29
2018-04-17T22:41:10.551Z,84.90
2018-04-17T22:43:38.198Z,85.27
2018-04-17T22:46:05.880Z,84.65
2018-04-17T22:48:33.511Z,84.69
2018-04-17T22:51:01.189Z,85.19
2018-04-17T22:53:28.863Z,85.19
2018-04-17T22:55:56.503Z,85.31
2018-04-17T22:58:24.152Z,85.62
2018-04-17T23:00:51.796Z,85.95
2018-04-17T23:03:19.388Z,85.69
2018-04-17T23:05:47.003Z,85.33
2018-04-17T23:08:14.630Z,84.56
2018-04-17T23:10:42.239Z,84.15
2018-04-17T23:13:09.854Z,83.96
2018-04-17T23:15:37.501Z,83.89
2018-04-17T23:18:05.100Z,82.85
2018-04-17T23:20:32.766Z,82.72
2018-04-17T23:23:00.416Z,84.18
2018-04-17T23:25:28.024Z,84.65
2018-04-17T23:27:55.662Z,84.91
2018-04-17T23:30:23.303Z,84.48
2018-04-17T23:32:50.897Z,84.41
2018-04-17T23:35:18.546Z,85.27
2018-04-17T23:37:46.175Z,85.32
2018-04-17T23:40:13.782Z,85.61
2018-04-17T23:42:41.392Z,85.85
2018-04-17T23:45:09.021Z,86.64
2018-04-17T23:47:36.620Z,87.89
2018-04-17T23:50:04.233Z,87.45
2018-04-17T23:52:31.849Z,87.66
2018-04-17T23:54:59.439Z,87.37
2018-04-17T23:57:27.029Z,86.95
2018-04-17T23:59:54.774Z,86.78
